Time;durP1;ratioP1;P1;durP2;ratioP2;P2;SDS_P1;SDS_P2;PMS_P1;PMS_P2;Temp;Humidity;BMP_temperature;BMP_pressure;BME280_temperature;BME280_humidity;BME280_pressure;Samples;Min_cycle;Max_cycle;Signal;HPM_P1;HPM_P2
2023/03/02 00:02:05;;;;;;;;;;;;;;;0.07;70.25;101248.91;4936218;29;20313;-66
2023/03/02 00:05:09;;;;;;;;;;;;;;;0.04;70.45;101243.75;4936233;29;20388;-66
2023/03/02 00:08:15;;;;;;;;;;;;;;;-0.01;70.47;101248.88;4936127;29;19925;-66
2023/03/02 00:11:20;;;;;;;;;;;;;;;-0.07;70.54;101249.72;4936065;29;20458;-66
2023/03/02 00:14:24;;;;;;;;;;;;;;;-0.12;70.81;101258.28;4936358;29;19926;-66
2023/03/02 00:17:27;;;;;;;;;;;;;;;-0.14;70.79;101255.69;4935960;29;19976;-66
2023/03/02 00:20:30;;;;;;;;;;;;;;;-0.14;70.50;101255.69;4935841;29;19926;-66
2023/03/02 00:23:33;;;;;;;;;;;;;;;-0.09;70.74;101248.00;4936092;29;19926;-66
2023/03/02 00:26:37;;;;;;;;;;;;;;;-0.12;70.27;101237.72;4935762;29;20339;-66
2023/03/02 00:29:41;;;;;;;;;;;;;;;-0.08;69.84;101244.56;4935839;29;19926;-66
2023/03/02 00:32:47;;;;;;;;;;;;;;;-0.06;68.46;101242.88;4923844;29;19952;-66
2023/03/02 00:35:50;;;;;;;;;;;;;;;-0.15;69.39;101241.13;4935663;29;19925;-67
2023/03/02 00:38:53;;;;;;;;;;;;;;;-0.21;69.92;101241.09;4923946;29;20019;-66
2023/03/02 00:41:57;;;;;;;;;;;;;;;-0.25;70.43;101239.38;4935518;29;20009;-66
2023/03/02 00:45:00;;;;;;;;;;;;;;;-0.22;70.52;101236.81;4934612;29;20422;-66
2023/03/02 00:48:03;;;;;;;;;;;;;;;-0.22;70.66;101238.50;4935623;29;19983;-66
2023/03/02 00:51:08;;;;;;;;;;;;;;;-0.29;70.88;101229.94;4934582;29;20157;-66
2023/03/02 00:54:11;;;;;;;;;;;;;;;-0.22;70.72;101234.25;4923866;29;19926;-66
2023/03/02 00:57:15;;;;;;;;;;;;;;;-0.26;70.45;101230.78;4935474;29;19926;-66
2023/03/02 01:00:19;;;;;;;;;;;;;;;-0.17;70.13;101234.25;4935478;29;19970;-66
2023/03/02 01:03:24;;;;;;;;;;;;;;;-0.18;70.60;101232.56;4924115;29;19975;-66
2023/03/02 01:06:27;;;;;;;;;;;;;;;-0.20;70.38;101223.97;4923536;29;19925;-66
2023/03/02 01:09:31;;;;;;;;;;;;;;;-0.20;70.63;101229.09;4935377;29;19941;-66
2023/03/02 01:12:35;;;;;;;;;;;;;;;-0.24;70.37;101229.09;4923625;29;19979;-66
2023/03/02 01:24:07;;;;;;;;;;;;;;;-0.35;70.75;101219.63;4935561;29;20411;-67
2023/03/02 01:27:11;;;;;;;;;;;;;;;-0.38;71.12;101225.63;4934596;29;20009;-66
2023/03/02 01:30:14;;;;;;;;;;;;;;;-0.41;71.05;101225.63;4923446;29;19926;-66
2023/03/02 01:33:17;;;;;;;;;;;;;;;-0.45;71.46;101216.16;4923421;29;19977;-66
2023/03/02 01:36:26;;;;;;;;;;;;;;;-0.50;72.01;101216.16;4934793;29;20340;-66
2023/03/02 01:39:30;;;;;;;;;;;;;;;-0.49;71.78;101219.59;4935378;29;20291;-66
2023/03/02 01:42:33;;;;;;;;;;;;;;;-0.58;72.13;101222.09;4912609;29;19925;-66
2023/03/02 01:45:51;;;;;;;;;;;;;;;-0.60;72.33;101216.13;4923108;29;19957;-66
2023/03/02 01:49:02;;;;;;;;;;;;;;;-0.63;72.73;101210.97;4923293;29;19978;-66
2023/03/02 01:52:14;;;;;;;;;;;;;;;-0.69;72.98;101206.66;4934203;29;19969;-66
2023/03/02 01:55:23;;;;;;;;;;;;;;;-0.58;72.21;101201.56;4922967;29;19974;-66
2023/03/02 01:58:30;;;;;;;;;;;;;;;-0.58;72.38;101201.56;4921074;29;19941;-66
2023/03/02 02:01:36;;;;;;;;;;;;;;;-0.61;72.79;101202.41;4938610;29;19990;-66
2023/03/02 02:04:41;;;;;;;;;;;;;;;-0.61;72.48;101196.41;4915946;29;19930;-66
2023/03/02 02:07:44;;;;;;;;;;;;;;;-0.53;72.51;101194.75;4938562;29;20374;-66
2023/03/02 02:10:48;;;;;;;;;;;;;;;-0.58;72.63;101196.41;4938258;29;20032;-66
2023/03/02 02:13:54;;;;;;;;;;;;;;;-0.60;72.71;101204.13;4926487;29;20339;-66
2023/03/02 02:16:58;;;;;;;;;;;;;;;-0.63;72.95;101198.13;4937816;29;19930;-66
2023/03/02 02:20:20;;;;;;;;;;;;;;;-0.62;72.55;101200.69;4938231;29;19926;-66
2023/03/02 02:23:31;;;;;;;;;;;;;;;-0.67;72.53;101201.50;4938077;29;19926;-66
2023/03/02 02:26:38;;;;;;;;;;;;;;;-0.71;72.82;101200.66;4937990;29;20014;-66
2023/03/02 02:29:46;;;;;;;;;;;;;;;-0.71;72.83;101196.34;4937988;29;19926;-66
2023/03/02 02:32:52;;;;;;;;;;;;;;;-0.80;73.33;101191.22;4937852;29;20021;-66
2023/03/02 02:36:00;;;;;;;;;;;;;;;-0.82;73.76;101185.19;4938231;29;20374;-66
2023/03/02 02:39:05;;;;;;;;;;;;;;;-0.73;73.29;101182.69;4926046;29;19926;-66
2023/03/02 02:42:14;;;;;;;;;;;;;;;-0.78;73.42;101176.66;4937878;29;20009;-66
2023/03/02 02:45:20;;;;;;;;;;;;;;;-0.80;73.63;101170.66;4937530;29;19930;-66
2023/03/02 02:48:24;;;;;;;;;;;;;;;-0.85;73.99;101176.63;4937600;29;20282;-66
2023/03/02 02:51:28;;;;;;;;;;;;;;;-0.90;73.94;101173.16;4925817;29;19994;-66
2023/03/02 02:54:33;;;;;;;;;;;;;;;-0.96;73.25;101174.88;4926158;29;19943;-66
2023/03/02 02:57:36;;;;;;;;;;;;;;;-0.98;74.16;101171.41;4937728;29;19974;-66
2023/03/02 03:00:39;;;;;;;;;;;;;;;-0.95;74.37;101168.03;4937460;29;19979;-66
2023/03/02 03:03:57;;;;;;;;;;;;;;;-0.94;74.62;101168.00;4926042;29;19925;-66
2023/03/02 03:07:02;;;;;;;;;;;;;;;-0.98;73.97;101168.84;4937274;29;20033;-66
2023/03/02 03:10:15;;;;;;;;;;;;;;;-1.04;74.35;101161.13;4925438;29;19978;-66
2023/03/02 03:13:17;;;;;;;;;;;;;;;-1.01;74.25;101162.84;4925529;29;19929;-66
2023/03/02 03:16:21;;;;;;;;;;;;;;;-1.06;74.76;101161.94;4937398;29;20005;-66
2023/03/02 03:19:28;;;;;;;;;;;;;;;-1.03;74.46;101167.97;4936891;29;20077;-66
2023/03/02 03:22:33;;;;;;;;;;;;;;;-1.06;74.52;101164.53;4925262;29;20475;-66
2023/03/02 03:25:36;;;;;;;;;;;;;;;-1.07;74.65;101165.38;4925074;29;19926;-66
2023/03/02 03:28:40;;;;;;;;;;;;;;;-1.09;74.95;101167.06;4921153;29;19941;-68
2023/03/02 03:31:43;;;;;;;;;;;;;;;-1.09;75.04;101164.50;4936822;29;20473;-66
2023/03/02 03:34:47;;;;;;;;;;;;;;;-1.13;74.86;101160.22;4924938;29;19929;-66
2023/03/02 03:38:01;;;;;;;;;;;;;;;-1.19;75.10;101161.03;4936766;29;19930;-66
2023/03/02 03:41:04;;;;;;;;;;;;;;;-1.25;75.32;101161.84;4936653;29;19925;-66
2023/03/02 03:44:08;;;;;;;;;;;;;;;-1.20;75.25;101164.44;4924920;29;20013;-66
2023/03/02 03:47:12;;;;;;;;;;;;;;;-1.21;75.31;101168.72;4924903;29;19926;-66
2023/03/02 03:50:17;;;;;;;;;;;;;;;-1.16;75.12;101163.59;4936420;29;19925;-66
2023/03/02 03:53:20;;;;;;;;;;;;;;;-1.21;74.97;101165.31;4924618;29;19986;-66
2023/03/02 03:56:23;;;;;;;;;;;;;;;-1.22;74.50;101161.84;4936370;29;19926;-66
2023/03/02 03:59:26;;;;;;;;;;;;;;;-1.24;74.47;101158.44;4936605;29;19947;-66
2023/03/02 04:02:36;;;;;;;;;;;;;;;-1.29;74.98;101165.25;4924577;29;19926;-66
2023/03/02 04:05:40;;;;;;;;;;;;;;;-1.28;75.22;101166.94;4936122;29;19943;-66
2023/03/02 04:08:46;;;;;;;;;;;;;;;-1.32;75.47;101164.38;4936162;29;19989;-66
2023/03/02 04:11:50;;;;;;;;;;;;;;;-1.33;75.07;101162.66;4935088;29;20344;-66
2023/03/02 04:14:53;;;;;;;;;;;;;;;-1.33;75.31;101170.34;4935940;29;20009;-66
2023/03/02 04:17:56;;;;;;;;;;;;;;;-1.34;75.27;101174.63;4936029;29;19925;-66
2023/03/02 04:21:00;;;;;;;;;;;;;;;-1.39;75.13;101173.72;4934772;29;19933;-66
2023/03/02 04:24:04;;;;;;;;;;;;;;;-1.40;75.42;101177.16;4935666;29;19926;-66
2023/03/02 04:27:07;;;;;;;;;;;;;;;-1.39;75.82;101173.72;4935872;29;20332;-66
2023/03/02 04:30:11;;;;;;;;;;;;;;;-1.43;75.58;101182.25;4923989;29;19966;-66
2023/03/02 04:33:15;;;;;;;;;;;;;;;-1.46;75.26;101177.97;4934899;29;20009;-66
2023/03/02 04:36:18;;;;;;;;;;;;;;;-1.48;75.82;101177.06;4923962;29;19953;-66
2023/03/02 04:39:23;;;;;;;;;;;;;;;-1.47;75.71;101181.38;4923861;29;19962;-66
2023/03/02 04:42:28;;;;;;;;;;;;;;;-1.45;75.41;101184.78;4923881;29;19929;-66
2023/03/02 04:45:30;;;;;;;;;;;;;;;-1.49;75.18;101177.09;4935443;29;19929;-66
2023/03/02 04:48:34;;;;;;;;;;;;;;;-1.51;75.53;101176.19;4935613;29;19926;-66
2023/03/02 04:51:38;;;;;;;;;;;;;;;-1.59;75.77;101180.44;4923823;29;19970;-66
2023/03/02 04:54:41;;;;;;;;;;;;;;;-1.60;75.82;101183.81;4935410;29;20397;-66
2023/03/02 04:57:44;;;;;;;;;;;;;;;-1.61;76.00;101166.72;4935497;29;20335;-66
2023/03/02 05:00:47;;;;;;;;;;;;;;;-1.61;75.67;101177.84;4935299;29;19969;-66
2023/03/02 05:03:54;;;;;;;;;;;;;;;-1.62;76.17;101181.25;4935393;29;19925;-66
2023/03/02 05:07:04;;;;;;;;;;;;;;;-1.60;76.01;101183.81;4924246;29;19933;-66
2023/03/02 05:10:08;;;;;;;;;;;;;;;-1.64;75.91;101178.66;4934796;29;19986;-66
2023/03/02 05:13:11;;;;;;;;;;;;;;;-1.68;75.94;101176.94;4935199;29;19929;-66
2023/03/02 05:16:13;;;;;;;;;;;;;;;-1.68;76.28;101182.06;4935272;29;19926;-66
2023/03/02 05:19:17;;;;;;;;;;;;;;;-1.70;75.79;101183.75;4935352;29;19934;-67
2023/03/02 05:22:21;;;;;;;;;;;;;;;-1.72;75.89;101189.72;4935025;29;19925;-66
2023/03/02 05:25:25;;;;;;;;;;;;;;;-1.71;75.75;101179.47;4935168;29;19926;-67
2023/03/02 05:28:28;;;;;;;;;;;;;;;-1.74;75.96;101184.56;4935160;29;20046;-66
2023/03/02 05:31:37;;;;;;;;;;;;;;;-1.75;76.10;101174.31;4931286;29;19930;-67
2023/03/02 05:34:40;;;;;;;;;;;;;;;-1.80;76.32;101174.25;4938776;29;19987;-66
2023/03/02 05:37:43;;;;;;;;;;;;;;;-1.81;76.29;101176.81;4938472;29;19926;-66
2023/03/02 05:40:47;;;;;;;;;;;;;;;-1.80;76.20;101181.94;4938719;29;19925;-67
2023/03/02 05:43:50;;;;;;;;;;;;;;;-1.83;76.14;101181.91;4938699;29;20295;-66
2023/03/02 05:46:53;;;;;;;;;;;;;;;-2.00;76.90;101183.47;4939047;29;19926;-66
2023/03/02 05:49:55;;;;;;;;;;;;;;;-1.87;76.08;101175.91;4938900;29;19962;-66
2023/03/02 05:53:01;;;;;;;;;;;;;;;-1.88;76.19;101184.44;4938121;29;19929;-66
2023/03/02 05:56:04;;;;;;;;;;;;;;;-1.87;75.86;101185.31;4937004;29;20054;-66
2023/03/02 05:59:07;;;;;;;;;;;;;;;-1.88;76.01;101179.31;4938493;29;19966;-66
2023/03/02 06:02:11;;;;;;;;;;;;;;;-1.82;75.83;101183.63;4938331;29;19997;-66
2023/03/02 06:05:15;;;;;;;;;;;;;;;-1.81;75.50;101190.50;4938211;29;20060;-66
2023/03/02 06:08:20;;;;;;;;;;;;;;;-1.80;75.53;101189.63;4938251;29;19975;-66
2023/03/02 06:11:24;;;;;;;;;;;;;;;-1.88;75.70;101189.59;4937338;29;19930;-66
2023/03/02 06:14:27;;;;;;;;;;;;;;;-1.88;75.79;101196.41;4937992;29;19925;-66
2023/03/02 06:17:30;;;;;;;;;;;;;;;-1.85;75.55;101198.13;4938157;29;20014;-66
2023/03/02 06:20:34;;;;;;;;;;;;;;;-1.90;75.59;101200.66;4937159;29;20002;-66
2023/03/02 06:23:41;;;;;;;;;;;;;;;-2.01;76.17;101197.13;4938053;29;19926;-66
2023/03/02 06:26:45;;;;;;;;;;;;;;;-2.04;76.33;101202.22;4937926;29;19926;-67
2023/03/02 06:29:48;;;;;;;;;;;;;;;-2.06;76.54;101201.34;4938000;29;19925;-66
2023/03/02 06:32:52;;;;;;;;;;;;;;;-2.07;76.61;101207.31;4925903;29;19930;-67
2023/03/02 06:35:56;;;;;;;;;;;;;;;-2.00;76.70;101198.84;4926518;29;20025;-66
2023/03/02 06:38:59;;;;;;;;;;;;;;;-2.10;77.12;101200.47;4937828;29;19925;-66
2023/03/02 06:42:02;;;;;;;;;;;;;;;-2.01;76.54;101207.38;4937383;29;19946;-66
2023/03/02 06:45:06;;;;;;;;;;;;;;;-1.95;76.67;101199.75;4937336;29;19934;-66
2023/03/02 06:48:10;;;;;;;;;;;;;;;-1.92;76.05;101198.06;4937701;29;20069;-66
2023/03/02 06:51:13;;;;;;;;;;;;;;;-1.92;76.25;101202.34;4937503;29;19930;-66
2023/03/02 06:54:15;;;;;;;;;;;;;;;-1.93;76.36;101200.63;4937472;29;19975;-66
2023/03/02 06:57:18;;;;;;;;;;;;;;;-2.22;77.71;101205.47;4937367;29;19925;-70
2023/03/02 07:00:26;;;;;;;;;;;;;;;-2.29;79.20;101207.09;4937320;29;19941;-71
2023/03/02 07:03:30;;;;;;;;;;;;;;;-2.25;79.09;101208.84;4937295;29;19986;-71
2023/03/02 07:06:33;;;;;;;;;;;;;;;-2.10;78.16;101213.28;4937266;29;19974;-66
2023/03/02 07:09:36;;;;;;;;;;;;;;;-1.94;77.98;101209.16;4937244;29;19926;-67
2023/03/02 07:12:39;;;;;;;;;;;;;;;-1.84;77.59;101218.66;4937247;29;19933;-67
2023/03/02 07:15:42;;;;;;;;;;;;;;;-1.77;77.74;101211.88;4937137;29;19930;-67
2023/03/02 07:18:45;;;;;;;;;;;;;;;-1.70;77.64;101214.50;4936610;29;19969;-67
2023/03/02 07:21:48;;;;;;;;;;;;;;;-1.67;77.26;101208.56;4936931;29;19974;-67
2023/03/02 07:24:51;;;;;;;;;;;;;;;-1.71;77.19;101206.81;4936960;29;19926;-68
2023/03/02 07:27:55;;;;;;;;;;;;;;;-1.61;77.08;101205.19;4925326;29;20055;-66
2023/03/02 07:30:58;;;;;;;;;;;;;;;-1.60;77.18;101204.34;4936777;29;19978;-66
2023/03/02 07:34:01;;;;;;;;;;;;;;;-1.49;77.42;101203.59;4923722;29;19929;-66
2023/03/02 07:37:04;;;;;;;;;;;;;;;-1.40;76.91;101202.81;4936226;29;19942;-67
2023/03/02 07:40:10;;;;;;;;;;;;;;;-1.35;76.91;101195.97;4936723;29;20006;-67
2023/03/02 07:43:13;;;;;;;;;;;;;;;-1.28;76.79;101197.72;4936725;29;19926;-67
2023/03/02 07:46:16;;;;;;;;;;;;;;;-1.19;76.26;101190.09;4936614;29;19930;-67
2023/03/02 07:49:18;;;;;;;;;;;;;;;-1.05;75.59;101187.66;4935799;29;19941;-67
2023/03/02 07:52:21;;;;;;;;;;;;;;;-0.99;75.31;101195.38;4934778;29;20013;-67
2023/03/02 07:55:24;;;;;;;;;;;;;;;-0.94;75.19;101195.41;4935574;29;19926;-67
2023/03/02 07:58:27;;;;;;;;;;;;;;;-0.83;75.08;101191.19;4935808;29;19929;-67
2023/03/02 08:01:30;;;;;;;;;;;;;;;-0.67;74.91;101181.84;4935834;29;19974;-67
2023/03/02 08:04:34;;;;;;;;;;;;;;;-0.54;75.28;101188.75;4936413;29;19966;-67
2023/03/02 08:07:38;;;;;;;;;;;;;;;-0.46;74.99;101181.06;4936322;29;20299;-67
2023/03/02 08:10:41;;;;;;;;;;;;;;;-0.38;75.28;101193.91;4936242;29;19965;-67
2023/03/02 08:13:45;;;;;;;;;;;;;;;-0.39;75.42;101187.06;4936380;29;19929;-67
2023/03/02 08:16:51;;;;;;;;;;;;;;;-0.35;75.24;101191.34;4936446;29;19929;-67
2023/03/02 08:19:54;;;;;;;;;;;;;;;-0.48;76.46;101190.47;4936178;29;19925;-67
2023/03/02 08:22:57;;;;;;;;;;;;;;;-0.54;76.12;101193.03;4936096;29;19926;-67
2023/03/02 08:26:01;;;;;;;;;;;;;;;-0.15;75.69;101188.88;4936104;29;20030;-67
2023/03/02 08:29:07;;;;;;;;;;;;;;;0.03;74.13;101181.16;4935978;29;20298;-67
2023/03/02 08:32:10;;;;;;;;;;;;;;;0.16;74.34;101185.50;4935901;29;19930;-67
2023/03/02 08:35:13;;;;;;;;;;;;;;;0.31;74.19;101178.63;4936227;29;19992;-67
2023/03/02 08:38:18;;;;;;;;;;;;;;;0.44;73.88;101177.78;4935117;29;20303;-67
2023/03/02 08:41:22;;;;;;;;;;;;;;;0.52;73.45;101170.91;4935815;29;20437;-67
2023/03/02 08:44:25;;;;;;;;;;;;;;;0.60;73.76;101161.47;4935542;29;19929;-67
2023/03/02 08:47:29;;;;;;;;;;;;;;;0.73;71.88;101153.72;4935686;29;19979;-67
2023/03/02 08:50:32;;;;;;;;;;;;;;;0.84;70.64;101149.41;4935645;29;19926;-67
2023/03/02 08:53:37;;;;;;;;;;;;;;;1.02;68.83;101145.91;4935635;29;19977;-67
2023/03/02 08:56:43;;;;;;;;;;;;;;;1.20;65.37;101139.88;4935654;29;20402;-66
2023/03/02 08:59:46;;;;;;;;;;;;;;;1.33;64.82;101131.22;4935690;29;19925;-67
2023/03/02 09:02:49;;;;;;;;;;;;;;;1.48;64.44;101128.56;4935671;29;20026;-67
2023/03/02 09:05:51;;;;;;;;;;;;;;;1.68;64.43;101130.19;4934797;29;20397;-70
2023/03/02 09:08:55;;;;;;;;;;;;;;;1.76;63.74;101124.13;4935489;29;19942;-68
2023/03/02 09:11:58;;;;;;;;;;;;;;;1.88;62.88;101130.88;4935471;29;20323;-67
2023/03/02 09:15:04;;;;;;;;;;;;;;;2.12;60.71;101126.44;4935386;29;19925;-68
2023/03/02 09:18:07;;;;;;;;;;;;;;;2.25;60.11;101128.03;4923621;29;19973;-76
2023/03/02 09:21:11;;;;;;;;;;;;;;;2.38;60.86;101127.06;4934389;29;19966;-69
2023/03/02 09:24:14;;;;;;;;;;;;;;;2.49;60.98;101125.25;4935084;29;20314;-70
2023/03/02 09:27:18;;;;;;;;;;;;;;;2.56;59.22;101124.31;4935373;29;20287;-69
2023/03/02 09:30:22;;;;;;;;;;;;;;;2.72;57.99;101121.59;4935615;29;19967;-69
2023/03/02 09:33:26;;;;;;;;;;;;;;;2.84;59.18;101120.59;4935116;29;19930;-68
2023/03/02 09:36:31;;;;;;;;;;;;;;;3.09;56.98;101116.84;4934431;29;19930;-67
2023/03/02 09:39:35;;;;;;;;;;;;;;;3.15;57.80;101111.59;4933272;29;20335;-66
2023/03/02 09:42:56;;;;;;;;;;;;;;;3.31;56.28;101112.28;4933428;29;19934;-67
2023/03/02 09:46:09;;;;;;;;;;;;;;;3.31;57.19;101112.28;4933652;29;19977;-68
2023/03/02 09:49:13;;;;;;;;;;;;;;;3.49;57.76;101111.19;4934379;29;20010;-67
2023/03/02 09:52:39;;;;;;;;;;;;;;;3.45;57.17;101107.78;4934652;29;19951;-67
2023/03/02 09:55:44;;;;;;;;;;;;;;;3.65;57.20;101106.66;4934937;29;19934;-68
2023/03/02 09:58:59;;;;;;;;;;;;;;;3.97;55.35;101104.44;4935367;29;20065;-68
2023/03/02 10:02:16;;;;;;;;;;;;;;;4.03;54.91;101103.47;4923463;29;20299;-71
2023/03/02 10:05:33;;;;;;;;;;;;;;;4.10;55.38;101101.66;4934939;29;19951;-69
2023/03/02 10:08:38;;;;;;;;;;;;;;;4.19;54.91;101094.59;4933956;29;19964;-68
2023/03/02 10:11:53;;;;;;;;;;;;;;;4.31;54.77;101101.28;4934802;29;20430;-69
2023/03/02 10:15:02;;;;;;;;;;;;;;;4.39;54.07;101085.63;4934819;29;19925;-68
2023/03/02 10:18:11;;;;;;;;;;;;;;;4.45;54.08;101092.44;4936737;29;19933;-68
2023/03/02 10:21:24;;;;;;;;;;;;;;;4.56;54.55;101090.47;4937850;29;19980;-68
2023/03/02 10:24:37;;;;;;;;;;;;;;;4.67;53.26;101085.97;4938242;29;19930;-68
2023/03/02 10:27:48;;;;;;;;;;;;;;;4.81;53.07;101081.38;4938285;29;19971;-68
2023/03/02 10:30:59;;;;;;;;;;;;;;;4.93;53.07;101082.03;4938283;29;19970;-68
2023/03/02 10:34:03;;;;;;;;;;;;;;;5.13;52.17;101074.69;4937887;29;19965;-68
2023/03/02 10:37:21;;;;;;;;;;;;;;;5.18;51.79;101082.38;4943497;28;19949;-69
2023/03/02 10:40:37;;;;;;;;;;;;;;;5.34;51.81;101076.81;4954561;28;20287;-69
2023/03/02 10:44:02;;;;;;;;;;;;;;;5.40;50.71;101082.78;4948085;29;19930;-69
2023/03/02 10:47:07;;;;;;;;;;;;;;;5.49;51.17;101079.97;4953085;29;20465;-69
2023/03/02 10:50:19;;;;;;;;;;;;;;;5.55;51.39;101077.22;4940870;28;19925;-68
2023/03/02 10:53:23;;;;;;;;;;;;;;;5.72;50.57;101074.25;4957232;28;19949;-67
2023/03/02 10:56:28;;;;;;;;;;;;;;;5.72;50.78;101066.47;4935397;28;19933;-67
2023/03/02 10:59:44;;;;;;;;;;;;;;;5.81;51.62;101061.06;4934909;28;19929;-68
2023/03/02 11:02:54;;;;;;;;;;;;;;;6.07;50.46;101054.41;4953669;28;19929;-68
2023/03/02 11:05:57;;;;;;;;;;;;;;;6.16;50.93;101043.78;4960946;28;19949;-68
2023/03/02 11:09:03;;;;;;;;;;;;;;;6.11;51.08;101050.84;4957479;28;20393;-68
2023/03/02 11:12:13;;;;;;;;;;;;;;;6.26;50.67;101045.25;4959509;28;19964;-68
2023/03/02 11:15:20;;;;;;;;;;;;;;;6.43;50.37;101042.22;4958560;28;20115;-68
2023/03/02 11:18:23;;;;;;;;;;;;;;;6.49;49.73;101039.44;4957635;28;19931;-68
2023/03/02 11:21:36;;;;;;;;;;;;;;;6.37;50.43;101039.78;4970706;28;19929;-73
2023/03/02 11:24:52;;;;;;;;;;;;;;;6.60;49.42;101024.41;4959582;28;19949;-67
2023/03/02 11:27:59;;;;;;;;;;;;;;;6.71;49.41;101022.38;4941300;28;19988;-67
2023/03/02 11:31:06;;;;;;;;;;;;;;;6.87;48.98;101021.94;4954792;28;19930;-67
2023/03/02 11:34:31;;;;;;;;;;;;;;;6.87;49.27;101019.34;4960587;28;19981;-68
2023/03/02 11:37:34;;;;;;;;;;;;;;;6.82;49.08;101019.44;4956561;28;19934;-68
2023/03/02 11:40:40;;;;;;;;;;;;;;;7.18;47.84;101017.53;4956686;28;20325;-70
2023/03/02 11:43:43;;;;;;;;;;;;;;;7.20;47.40;101013.13;4950688;28;20461;-68
2023/03/02 11:46:52;;;;;;;;;;;;;;;7.23;48.44;101012.19;4951666;28;19933;-68
2023/03/02 11:50:00;;;;;;;;;;;;;;;7.31;48.58;101011.97;4965416;28;19941;-70
2023/03/02 11:53:05;;;;;;;;;;;;;;;7.32;48.29;101000.66;4971159;28;19969;-71
2023/03/02 11:56:09;;;;;;;;;;;;;;;7.47;48.37;101002.78;4963938;28;19929;-70
2023/03/02 11:59:18;;;;;;;;;;;;;;;7.69;47.88;100997.72;4967270;28;19934;-71
2023/03/02 12:02:21;;;;;;;;;;;;;;;7.83;48.09;100999.88;4953697;28;20404;-71
2023/03/02 12:05:28;;;;;;;;;;;;;;;8.01;47.70;100987.97;4954011;29;20449;-67
2023/03/02 12:08:34;;;;;;;;;;;;;;;8.07;46.65;100987.75;4954206;29;19946;-73
2023/03/02 12:11:39;;;;;;;;;;;;;;;8.12;47.14;100988.47;4942152;29;19949;-68
2023/03/02 12:14:42;;;;;;;;;;;;;;;8.19;47.89;100989.09;4942192;29;19926;-68
2023/03/02 12:17:45;;;;;;;;;;;;;;;8.30;46.91;100985.22;4953886;29;20401;-70
2023/03/02 12:21:01;;;;;;;;;;;;;;;8.45;46.22;100983.81;4954601;29;19925;-69
2023/03/02 12:24:05;;;;;;;;;;;;;;;8.61;46.84;100977.19;4954990;29;19965;-70
2023/03/02 12:27:14;;;;;;;;;;;;;;;8.84;45.73;100971.09;4952103;29;19930;-69
2023/03/02 12:30:22;;;;;;;;;;;;;;;9.01;45.38;100967.00;4953632;29;19925;-69
2023/03/02 12:33:25;;;;;;;;;;;;;;;9.11;45.07;100962.25;4954500;29;20036;-69
2023/03/02 12:36:34;;;;;;;;;;;;;;;9.21;45.60;100958.38;4954356;29;19924;-70
2023/03/02 12:39:47;;;;;;;;;;;;;;;9.30;44.55;100953.63;4954107;29;19929;-70
2023/03/02 12:43:02;;;;;;;;;;;;;;;9.37;44.55;100945.56;4955382;29;19926;-70
2023/03/02 12:46:24;;;;;;;;;;;;;;;9.54;44.62;100935.31;4954318;28;19929;-70
2023/03/02 12:49:34;;;;;;;;;;;;;;;9.62;44.80;100932.34;4954395;29;19981;-70
2023/03/02 12:52:38;;;;;;;;;;;;;;;9.56;43.89;100933.47;4954835;29;20366;-70
2023/03/02 12:55:43;;;;;;;;;;;;;;;9.69;44.77;100915.50;4955119;29;20016;-69
2023/03/02 12:58:49;;;;;;;;;;;;;;;9.93;44.42;100921.47;4954726;29;19973;-70
2023/03/02 13:02:03;;;;;;;;;;;;;;;10.07;43.57;100915.63;4954814;29;19941;-70
2023/03/02 13:05:16;;;;;;;;;;;;;;;10.17;43.36;100907.31;4954840;29;20040;-71
2023/03/02 13:08:26;;;;;;;;;;;;;;;10.34;43.40;100901.38;4954888;29;19945;-71
2023/03/02 13:11:35;;;;;;;;;;;;;;;10.64;43.41;100900.88;4954776;29;19925;-72
2023/03/02 13:14:42;;;;;;;;;;;;;;;10.89;41.84;100903.19;4954770;29;20302;-69
2023/03/02 13:17:52;;;;;;;;;;;;;;;11.26;40.99;100896.16;4954534;29;19924;-69
2023/03/02 13:20:55;;;;;;;;;;;;;;;11.77;40.10;100876.13;4954621;29;19965;-69
2023/03/02 13:23:59;;;;;;;;;;;;;;;12.15;38.61;100876.78;4954389;28;19950;-69
2023/03/02 13:27:06;;;;;;;;;;;;;;;12.82;42.09;100879.28;4954738;29;19966;-69
2023/03/02 13:30:12;;;;;;;;;;;;;;;12.91;40.97;100871.75;4954271;29;19934;-70
2023/03/02 13:33:21;;;;;;;;;;;;;;;12.55;38.15;100869.41;4954500;29;20293;-70
2023/03/02 13:36:32;;;;;;;;;;;;;;;12.05;37.90;100865.09;4942625;29;20391;-69
2023/03/02 13:39:35;;;;;;;;;;;;;;;12.32;38.80;100865.41;4954271;29;20032;-69
2023/03/02 13:42:39;;;;;;;;;;;;;;;11.75;38.47;100867.53;4950425;29;19924;-70
2023/03/02 13:45:49;;;;;;;;;;;;;;;12.09;39.49;100858.75;4954142;28;20298;-70
2023/03/02 13:48:54;;;;;;;;;;;;;;;11.83;38.89;100865.34;4954373;29;20342;-70
2023/03/02 13:52:13;;;;;;;;;;;;;;;11.74;39.42;100861.44;4953642;28;19929;-71
2023/03/02 13:55:17;;;;;;;;;;;;;;;11.94;39.43;100854.34;4959174;29;19925;-70
2023/03/02 13:58:22;;;;;;;;;;;;;;;11.78;38.77;100847.25;4957912;29;19925;-72
2023/03/02 14:01:26;;;;;;;;;;;;;;;11.64;39.07;100850.56;4957996;29;20445;-68
2023/03/02 14:04:30;;;;;;;;;;;;;;;11.78;38.51;100851.66;4952626;29;19925;-67
2023/03/02 14:07:34;;;;;;;;;;;;;;;11.83;38.63;100850.47;4957839;29;19980;-71
2023/03/02 14:10:40;;;;;;;;;;;;;;;11.88;38.26;100839.78;4958047;29;19930;-70
2023/03/02 14:13:50;;;;;;;;;;;;;;;11.81;37.39;100839.25;4958072;29;20048;-70
2023/03/02 14:16:56;;;;;;;;;;;;;;;11.75;37.34;100847.41;4945711;29;19965;-70
2023/03/02 14:20:00;;;;;;;;;;;;;;;11.92;36.78;100843.94;4957820;29;19989;-70
2023/03/02 14:23:07;;;;;;;;;;;;;;;11.93;37.93;100850.00;4957889;28;19942;-71
2023/03/02 14:26:31;;;;;;;;;;;;;;;11.81;37.50;100844.47;4945802;29;19930;-69
2023/03/02 14:29:38;;;;;;;;;;;;;;;12.04;37.53;100842.44;4957793;29;20331;-68
2023/03/02 14:32:47;;;;;;;;;;;;;;;12.06;37.19;100836.22;4957401;29;20247;-68
2023/03/02 14:35:56;;;;;;;;;;;;;;;11.96;37.09;100839.38;4957524;29;20335;-69
2023/03/02 14:39:01;;;;;;;;;;;;;;;12.13;37.34;100841.97;4957278;29;19929;-70
2023/03/02 14:42:09;;;;;;;;;;;;;;;12.11;37.86;100838.56;4957496;29;20032;-70
2023/03/02 14:45:12;;;;;;;;;;;;;;;12.23;37.23;100839.69;4960110;28;20051;-70
2023/03/02 14:48:17;;;;;;;;;;;;;;;12.32;37.60;100839.19;4956778;28;19929;-71
2023/03/02 14:51:24;;;;;;;;;;;;;;;11.75;37.43;100826.47;4956761;28;19966;-71
2023/03/02 14:54:35;;;;;;;;;;;;;;;12.16;36.61;100836.56;4956099;29;19925;-72
2023/03/02 14:57:39;;;;;;;;;;;;;;;12.15;35.03;100834.84;4939711;29;19926;-72
2023/03/02 15:00:47;;;;;;;;;;;;;;;12.59;36.21;100836.81;4937425;29;20014;-72
2023/03/02 15:03:50;;;;;;;;;;;;;;;13.09;34.72;100840.97;4936300;29;19930;-72
2023/03/02 15:06:55;;;;;;;;;;;;;;;13.37;35.09;100842.00;4950862;29;20359;-72
2023/03/02 15:09:58;;;;;;;;;;;;;;;13.99;34.30;100840.03;4956522;29;19925;-72
2023/03/02 15:13:05;;;;;;;;;;;;;;;14.35;33.66;100834.25;4956232;29;19933;-72
2023/03/02 15:16:11;;;;;;;;;;;;;;;14.09;32.65;100835.88;4936494;29;19925;-73
2023/03/02 15:19:15;;;;;;;;;;;;;;;14.41;32.48;100836.50;4955783;29;19977;-71
2023/03/02 15:22:21;;;;;;;;;;;;;;;13.43;34.37;100839.03;4965370;28;20321;-72
2023/03/02 15:25:27;;;;;;;;;;;;;;;12.41;35.24;100843.06;4969864;28;19928;-73
2023/03/02 15:28:31;;;;;;;;;;;;;;;11.76;36.54;100845.63;4975295;28;19925;-71
2023/03/02 15:31:36;;;;;;;;;;;;;;;11.37;37.29;100847.59;4960136;28;19965;-69
2023/03/02 15:34:42;;;;;;;;;;;;;;;11.30;37.87;100851.47;4955169;29;19928;-72
2023/03/02 15:37:48;;;;;;;;;;;;;;;11.01;38.05;100852.91;4944532;29;20291;-71
2023/03/02 15:40:55;;;;;;;;;;;;;;;10.79;38.64;100860.09;4955803;29;19926;-71
2023/03/02 15:44:00;;;;;;;;;;;;;;;10.63;40.15;100855.59;4955283;29;20430;-72
2023/03/02 15:47:05;;;;;;;;;;;;;;;10.14;38.96;100862.19;4923577;29;19929;-72
2023/03/02 15:50:09;;;;;;;;;;;;;;;10.20;40.08;100864.53;4944178;29;19965;-72
2023/03/02 15:53:13;;;;;;;;;;;;;;;10.04;39.60;100858.28;4952300;29;19936;-71
2023/03/02 15:56:17;;;;;;;;;;;;;;;10.07;40.66;100860.75;4956508;28;20325;-71
2023/03/02 15:59:26;;;;;;;;;;;;;;;9.98;40.62;100862.84;4955481;29;19995;-71
2023/03/02 16:02:30;;;;;;;;;;;;;;;9.85;40.00;100869.53;4958083;28;19925;-72
2023/03/02 16:05:34;;;;;;;;;;;;;;;9.76;41.26;100873.44;4955345;29;20401;-71
2023/03/02 16:08:37;;;;;;;;;;;;;;;9.66;41.46;100866.88;4951361;29;19957;-70